Time;durP1;ratioP1;P1;durP2;ratioP2;P2;SDS_P1;SDS_P2;PMS_P1;PMS_P2;Temp;Humidity;BMP_temperature;BMP_pressure;BME280_temperature;BME280_humidity;BME280_pressure;Samples;Min_cycle;Max_cycle;Signal;HPM_P1;HPM_P2
2024/03/11 00:01:44;;;;;;;50.13;30.27;;;9.30;99.90;;;;;;4994426;28;20206;-72
2024/03/11 00:04:10;;;;;;;45.43;28.90;;;9.30;99.90;;;;;;4993566;28;20264;-72
2024/03/11 00:06:39;;;;;;;44.53;28.97;;;9.30;99.90;;;;;;4989802;28;20204;-72
2024/03/11 00:09:15;;;;;;;45.87;28.90;;;9.30;99.90;;;;;;4994000;28;20181;-72
2024/03/11 00:11:48;;;;;;;45.73;28.87;;;9.30;99.90;;;;;;4996313;28;20207;-71
2024/03/11 00:14:21;;;;;;;48.80;29.83;;;9.30;99.90;;;;;;4997216;28;20185;-72
2024/03/11 00:16:46;;;;;;;43.63;28.87;;;9.30;99.90;;;;;;4997120;28;20196;-71
2024/03/11 00:19:12;;;;;;;53.80;30.33;;;9.30;99.90;;;;;;4997102;28;20215;-71
2024/03/11 00:21:38;;;;;;;48.13;30.80;;;9.30;99.90;;;;;;4997056;28;20208;-71
2024/03/11 00:24:03;;;;;;;50.40;30.40;;;9.30;99.90;;;;;;4997384;28;20203;-71
2024/03/11 00:26:29;;;;;;;50.40;30.83;;;9.20;99.90;;;;;;4996635;28;20640;-71
2024/03/11 00:28:55;;;;;;;53.27;32.90;;;9.20;99.90;;;;;;4996900;28;20276;-71
2024/03/11 00:31:27;;;;;;;60.20;34.07;;;9.20;99.90;;;;;;4980057;28;20647;-71
2024/03/11 00:33:53;;;;;;;60.63;34.47;;;9.20;99.90;;;;;;4990730;28;20250;-71
2024/03/11 00:36:20;;;;;;;55.77;33.50;;;9.20;99.90;;;;;;4995713;28;20172;-71
2024/03/11 00:38:46;;;;;;;56.37;35.77;;;9.20;99.90;;;;;;4995977;28;20695;-71
2024/03/11 00:41:12;;;;;;;57.80;36.33;;;9.10;99.90;;;;;;4995986;28;20185;-71
2024/03/11 00:43:38;;;;;;;63.03;37.17;;;9.10;99.90;;;;;;4995382;28;20259;-70
2024/03/11 00:46:03;;;;;;;59.87;37.70;;;9.10;99.90;;;;;;4994948;28;20181;-70
2024/03/11 00:48:29;;;;;;;61.73;37.07;;;9.00;99.90;;;;;;4994937;28;20213;-72
2024/03/11 00:50:55;;;;;;;70.13;39.43;;;9.00;99.90;;;;;;4995066;28;20228;-71
2024/03/11 00:53:20;;;;;;;71.57;40.37;;;9.00;99.90;;;;;;4996124;28;20288;-71
2024/03/11 00:55:46;;;;;;;64.53;36.57;;;9.00;99.90;;;;;;4994927;28;20276;-71
2024/03/11 00:58:13;;;;;;;65.70;37.33;;;8.90;99.90;;;;;;4995163;28;20185;-71
2024/03/11 01:00:39;;;;;;;70.60;38.50;;;8.90;99.90;;;;;;4992684;28;20192;-71
2024/03/11 01:03:06;;;;;;;68.20;38.33;;;8.90;99.90;;;;;;4994457;28;20227;-71
2024/03/11 01:05:32;;;;;;;61.77;37.90;;;8.80;99.90;;;;;;4993977;28;20185;-71
2024/03/11 01:07:58;;;;;;;63.87;39.07;;;8.80;99.90;;;;;;4993763;28;20227;-71
2024/03/11 01:10:23;;;;;;;71.13;40.83;;;8.80;99.90;;;;;;5002175;28;20180;-71
2024/03/11 01:12:49;;;;;;;65.27;38.43;;;8.80;99.90;;;;;;4994859;28;20320;-71
2024/03/11 01:15:15;;;;;;;68.13;40.57;;;8.70;99.90;;;;;;4995070;28;20252;-71
2024/03/11 01:17:41;;;;;;;74.87;41.53;;;8.70;99.90;;;;;;4994606;28;20359;-71
2024/03/11 01:20:13;;;;;;;66.77;40.50;;;8.70;99.90;;;;;;4989776;28;20193;-71
2024/03/11 01:22:39;;;;;;;77.80;42.03;;;8.70;99.90;;;;;;4993989;28;20259;-71
2024/03/11 01:25:05;;;;;;;68.80;41.17;;;8.70;99.90;;;;;;4993827;28;20173;-71
2024/03/11 01:27:32;;;;;;;65.27;41.00;;;8.70;99.90;;;;;;4989722;28;20228;-71
2024/03/11 01:29:58;;;;;;;71.57;41.30;;;8.70;99.90;;;;;;4993877;28;20173;-72
2024/03/11 01:32:24;;;;;;;74.87;42.17;;;8.70;99.90;;;;;;5001862;28;20296;-72
2024/03/11 01:34:50;;;;;;;78.63;41.77;;;8.60;99.90;;;;;;4994021;28;20189;-71
2024/03/11 01:37:15;;;;;;;70.43;42.57;;;8.60;99.90;;;;;;4993877;28;20696;-71
2024/03/11 01:39:44;;;;;;;84.03;44.37;;;8.70;99.90;;;;;;4993597;28;20177;-71
2024/03/11 01:42:14;;;;;;;73.83;43.90;;;8.70;99.90;;;;;;4989748;28;20201;-71
2024/03/11 01:44:51;;;;;;;78.27;46.00;;;8.80;99.90;;;;;;4992601;28;20264;-71
2024/03/11 01:47:22;;;;;;;79.87;45.03;;;8.80;99.90;;;;;;4993299;28;20208;-71
2024/03/11 01:49:53;;;;;;;74.50;44.47;;;8.90;99.90;;;;;;4993367;28;20239;-71
2024/03/11 01:52:25;;;;;;;74.80;46.03;;;8.90;99.90;;;;;;4993459;28;20251;-71
2024/03/11 01:54:52;;;;;;;85.97;46.10;;;9.00;99.90;;;;;;4983823;28;20196;-71
2024/03/11 01:57:17;;;;;;;73.53;45.00;;;9.00;99.90;;;;;;4989026;28;20529;-71
2024/03/11 01:59:45;;;;;;;86.37;47.77;;;9.00;99.90;;;;;;4992993;28;20192;-71
2024/03/11 02:02:10;;;;;;;87.23;48.97;;;9.00;99.90;;;;;;4993073;28;20254;-71
2024/03/11 02:04:38;;;;;;;82.23;47.37;;;9.00;99.90;;;;;;4992890;28;20737;-71
2024/03/11 02:07:05;;;;;;;95.40;48.43;;;8.90;99.90;;;;;;4992839;28;20212;-72
2024/03/11 02:09:31;;;;;;;90.50;50.50;;;8.80;99.90;;;;;;4992628;28;20176;-71
2024/03/11 02:11:56;;;;;;;82.67;50.07;;;8.70;99.90;;;;;;4992980;28;20198;-72
2024/03/11 02:14:22;;;;;;;98.30;50.53;;;8.70;99.90;;;;;;5001499;28;20260;-72
2024/03/11 02:16:48;;;;;;;89.67;52.53;;;8.70;99.90;;;;;;4976708;28;20201;-72
2024/03/11 02:19:17;;;;;;;92.93;53.17;;;8.70;99.90;;;;;;4992715;28;20177;-72
2024/03/11 02:21:46;;;;;;;104.63;52.50;;;8.70;99.90;;;;;;4992584;28;20204;-72
2024/03/11 02:24:15;;;;;;;95.47;52.60;;;8.70;99.90;;;;;;4992471;28;20184;-72
2024/03/11 02:26:48;;;;;;;90.53;52.13;;;8.60;99.90;;;;;;4992138;28;20583;-72
2024/03/11 02:29:16;;;;;;;95.27;52.00;;;8.60;99.90;;;;;;4999223;28;20176;-72
2024/03/11 02:31:46;;;;;;;98.93;54.33;;;8.60;99.90;;;;;;4993590;28;20251;-72
2024/03/11 02:34:13;;;;;;;93.57;51.47;;;8.50;99.90;;;;;;4992195;28;20594;-73
2024/03/11 02:36:50;;;;;;;96.47;53.97;;;8.60;99.90;;;;;;4992348;28;20202;-73
2024/03/11 02:39:17;;;;;;;92.33;51.43;;;8.60;99.90;;;;;;4999170;28;20191;-73
2024/03/11 02:41:43;;;;;;;89.53;53.13;;;8.50;99.90;;;;;;4993189;28;20205;-73
2024/03/11 02:44:13;;;;;;;132.43;75.50;;;8.50;99.90;;;;;;4992374;28;20172;-73
2024/03/11 02:46:39;;;;;;;102.77;57.50;;;8.50;99.90;;;;;;4991753;28;20243;-73
2024/03/11 02:49:05;;;;;;;95.80;56.20;;;8.50;99.90;;;;;;4991310;28;20185;-73
2024/03/11 02:51:30;;;;;;;89.60;54.80;;;8.50;99.90;;;;;;4989435;28;20201;-73
2024/03/11 02:53:56;;;;;;;96.50;51.60;;;8.60;99.90;;;;;;4992194;28;20269;-74
2024/03/11 02:56:22;;;;;;;90.33;55.17;;;8.50;99.90;;;;;;4991510;28;20187;-73
2024/03/11 02:58:49;;;;;;;87.00;51.03;;;8.50;99.90;;;;;;4992013;28;20361;-73
2024/03/11 03:01:16;;;;;;;92.90;51.97;;;8.50;99.90;;;;;;4992039;28;20372;-73
2024/03/11 03:03:42;;;;;;;91.83;49.83;;;8.50;99.90;;;;;;4991454;28;20212;-73
2024/03/11 03:06:08;;;;;;;87.63;50.80;;;8.50;99.90;;;;;;4991824;28;20239;-73
2024/03/11 03:08:33;;;;;;;90.87;50.07;;;8.60;99.90;;;;;;4990136;28;20294;-73
2024/03/11 03:11:02;;;;;;;89.40;48.70;;;8.60;99.90;;;;;;4991911;28;20177;-74
2024/03/11 03:13:29;;;;;;;91.27;50.73;;;8.60;99.90;;;;;;4991950;28;20216;-74
2024/03/11 03:15:56;;;;;;;82.23;49.10;;;8.60;99.90;;;;;;4999486;28;20173;-73
2024/03/11 03:18:23;;;;;;;82.23;48.27;;;8.50;99.90;;;;;;4986059;28;20580;-73
2024/03/11 03:20:49;;;;;;;85.23;50.67;;;8.60;99.90;;;;;;4991812;28;20176;-73
2024/03/11 03:23:14;;;;;;;82.33;49.07;;;8.60;99.90;;;;;;4991959;28;20223;-74
2024/03/11 03:25:40;;;;;;;87.07;50.37;;;8.60;99.90;;;;;;4991814;28;20177;-73
2024/03/11 03:28:06;;;;;;;84.03;49.23;;;8.60;99.90;;;;;;4992104;28;20219;-74
2024/03/11 03:30:35;;;;;;;97.50;49.20;;;8.60;99.90;;;;;;4991787;28;20641;-73
2024/03/11 03:33:01;;;;;;;83.00;49.50;;;8.60;99.90;;;;;;4991660;28;20235;-74
2024/03/11 03:35:27;;;;;;;86.40;48.13;;;8.60;99.90;;;;;;4992015;28;20172;-74
2024/03/11 03:37:54;;;;;;;96.57;51.80;;;8.60;99.90;;;;;;4992599;28;20190;-73
2024/03/11 03:40:22;;;;;;;83.00;49.07;;;8.60;99.90;;;;;;4992344;28;20591;-74
2024/03/11 03:42:49;;;;;;;87.00;48.37;;;8.60;99.90;;;;;;4991452;28;20204;-73
2024/03/11 03:45:17;;;;;;;85.03;48.17;;;8.60;99.90;;;;;;4992380;28;20188;-73
2024/03/11 03:47:43;;;;;;;84.00;48.17;;;8.60;99.90;;;;;;4995405;28;20204;-73
2024/03/11 03:50:10;;;;;;;79.27;48.60;;;8.60;99.90;;;;;;4995828;28;20717;-73
2024/03/11 03:52:44;;;;;;;80.80;44.87;;;8.70;99.90;;;;;;4995495;28;20193;-75
2024/03/11 03:55:14;;;;;;;89.93;50.63;;;8.60;99.90;;;;;;4995600;28;20798;-73
2024/03/11 03:57:44;;;;;;;90.77;50.83;;;8.60;99.90;;;;;;4995220;28;20177;-73
2024/03/11 04:00:16;;;;;;;95.40;50.23;;;8.60;99.90;;;;;;4995452;28;20189;-73
2024/03/11 04:02:46;;;;;;;95.30;50.67;;;8.60;99.90;;;;;;4995348;28;20252;-74
2024/03/11 04:05:12;;;;;;;98.13;54.93;;;8.60;99.90;;;;;;4995411;28;20177;-73
2024/03/11 04:07:41;;;;;;;95.50;51.73;;;8.60;99.90;;;;;;4994985;28;20283;-74
2024/03/11 04:10:14;;;;;;;97.80;52.87;;;8.60;99.90;;;;;;4995540;28;20212;-73
2024/03/11 04:12:44;;;;;;;99.37;53.70;;;8.60;99.90;;;;;;4995073;28;20551;-74
2024/03/11 04:15:14;;;;;;;99.03;51.77;;;8.50;99.90;;;;;;4990979;28;20212;-74
2024/03/11 04:17:40;;;;;;;103.73;52.90;;;8.50;99.90;;;;;;4994819;28;20189;-73
2024/03/11 04:20:11;;;;;;;96.33;51.13;;;8.50;99.90;;;;;;4996381;28;20169;-76
2024/03/11 04:22:41;;;;;;;101.17;54.07;;;8.50;99.90;;;;;;4995139;28;20206;-74
2024/03/11 04:25:15;;;;;;;100.63;53.87;;;8.50;99.90;;;;;;4995069;28;20173;-74
2024/03/11 04:27:41;;;;;;;106.13;56.63;;;8.40;99.90;;;;;;4996217;28;20243;-73
2024/03/11 04:30:08;;;;;;;97.63;57.20;;;8.40;99.90;;;;;;5002325;28;20255;-74
2024/03/11 04:32:35;;;;;;;114.17;62.30;;;8.40;99.90;;;;;;4996313;28;20197;-73
2024/03/11 04:35:03;;;;;;;104.80;57.90;;;8.40;99.90;;;;;;4995226;28;20172;-72
2024/03/11 04:37:29;;;;;;;114.00;56.33;;;8.40;99.90;;;;;;4995926;28;20180;-73
2024/03/11 04:39:54;;;;;;;106.80;55.60;;;8.50;99.90;;;;;;4996818;28;20185;-73
2024/03/11 04:42:20;;;;;;;108.90;56.40;;;8.50;99.90;;;;;;4990353;28;20209;-73
2024/03/11 04:44:46;;;;;;;109.37;58.30;;;8.50;99.90;;;;;;4993041;28;20176;-72
2024/03/11 04:47:11;;;;;;;105.53;58.27;;;8.40;99.90;;;;;;4994439;28;20212;-72
2024/03/11 04:49:37;;;;;;;106.13;56.67;;;8.50;99.90;;;;;;4994504;28;20180;-72
2024/03/11 04:52:03;;;;;;;110.17;58.37;;;8.50;99.90;;;;;;4994606;28;20240;-72
2024/03/11 04:54:30;;;;;;;114.37;56.20;;;8.50;99.90;;;;;;4994328;28;20183;-72
2024/03/11 04:56:57;;;;;;;108.20;56.83;;;8.50;99.90;;;;;;4993587;28;20193;-72
2024/03/11 04:59:22;;;;;;;114.13;57.07;;;8.40;99.90;;;;;;4994827;28;20557;-72
2024/03/11 05:01:48;;;;;;;117.33;58.70;;;8.40;99.90;;;;;;5002686;28;20200;-72
2024/03/11 05:04:14;;;;;;;120.73;56.97;;;8.40;99.90;;;;;;4994388;28;20375;-72
2024/03/11 05:06:39;;;;;;;104.13;57.00;;;8.50;99.90;;;;;;4993819;28;20212;-72
2024/03/11 05:09:05;;;;;;;123.30;61.23;;;8.40;99.90;;;;;;4994178;28;20256;-72
2024/03/11 05:11:30;;;;;;;120.60;60.03;;;8.40;99.90;;;;;;4987800;28;20201;-73
2024/03/11 05:13:56;;;;;;;123.27;61.83;;;8.40;99.90;;;;;;5002134;28;20633;-72
2024/03/11 05:16:23;;;;;;;117.97;61.37;;;8.30;99.90;;;;;;4991667;28;20181;-72
2024/03/11 05:18:51;;;;;;;114.93;59.00;;;8.30;99.90;;;;;;4993934;28;20216;-73
2024/03/11 05:21:17;;;;;;;135.93;65.07;;;8.30;99.90;;;;;;4994045;28;20679;-73
2024/03/11 05:23:42;;;;;;;129.57;65.00;;;8.20;99.90;;;;;;4993885;28;20185;-72
2024/03/11 05:26:08;;;;;;;127.23;62.00;;;8.20;99.90;;;;;;4994010;28;20719;-73
2024/03/11 05:28:33;;;;;;;118.83;61.90;;;8.20;99.90;;;;;;4993906;28;20742;-73
2024/03/11 05:30:59;;;;;;;127.00;63.53;;;8.20;99.90;;;;;;4993675;28;20181;-73
2024/03/11 05:33:25;;;;;;;129.37;67.50;;;8.20;99.90;;;;;;4993811;28;20223;-72
2024/03/11 05:35:51;;;;;;;142.97;69.40;;;8.20;99.90;;;;;;4993666;28;20188;-72
2024/03/11 05:38:16;;;;;;;135.03;64.67;;;8.20;99.90;;;;;;4994114;28;20268;-73
2024/03/11 05:40:47;;;;;;;135.27;67.40;;;8.30;99.90;;;;;;4993501;28;20284;-73
2024/03/11 05:43:13;;;;;;;131.30;64.53;;;8.20;99.90;;;;;;4989771;28;20356;-73
2024/03/11 05:45:38;;;;;;;139.63;70.30;;;8.20;99.90;;;;;;4993354;28;20279;-72
2024/03/11 05:48:06;;;;;;;148.53;72.07;;;8.10;99.90;;;;;;4993485;28;20243;-72
2024/03/11 05:50:32;;;;;;;143.47;69.30;;;8.20;99.90;;;;;;4993658;28;20243;-73
2024/03/11 05:52:58;;;;;;;140.83;69.20;;;8.10;99.90;;;;;;4993454;28;20204;-72
2024/03/11 05:55:32;;;;;;;149.10;72.40;;;8.10;99.90;;;;;;4993554;28;20185;-73
2024/03/11 05:58:02;;;;;;;149.53;74.87;;;8.20;99.90;;;;;;4993167;28;20223;-72
2024/03/11 06:00:31;;;;;;;147.70;73.60;;;8.10;99.90;;;;;;4993459;28;20664;-73
2024/03/11 06:02:57;;;;;;;160.63;74.97;;;8.20;99.90;;;;;;4993004;28;20205;-72
2024/03/11 06:05:22;;;;;;;144.77;76.20;;;8.20;99.90;;;;;;4993386;28;20195;-72
2024/03/11 06:07:48;;;;;;;146.73;70.53;;;8.10;99.90;;;;;;4992267;28;20212;-73
2024/03/11 06:10:14;;;;;;;158.67;75.50;;;8.10;99.90;;;;;;4990342;28;20181;-72
2024/03/11 06:12:39;;;;;;;156.03;76.30;;;8.10;99.90;;;;;;4990554;28;20312;-73
2024/03/11 06:15:05;;;;;;;149.57;74.87;;;8.10;99.90;;;;;;4993608;28;20652;-73
2024/03/11 06:17:31;;;;;;;156.07;75.70;;;8.10;99.90;;;;;;4993268;28;20271;-73
2024/03/11 06:19:57;;;;;;;152.23;74.00;;;8.10;99.90;;;;;;4992887;28;20189;-73
2024/03/11 06:22:23;;;;;;;154.13;73.90;;;8.10;99.90;;;;;;4993029;28;20200;-73
2024/03/11 06:24:49;;;;;;;150.03;74.00;;;8.10;99.90;;;;;;4992867;28;20188;-73
2024/03/11 06:27:15;;;;;;;145.70;70.53;;;8.10;99.90;;;;;;4992448;28;20211;-73
2024/03/11 06:29:42;;;;;;;142.73;73.20;;;8.10;99.90;;;;;;4975110;28;20275;-73
2024/03/11 06:32:08;;;;;;;155.70;73.13;;;8.10;99.90;;;;;;4992104;28;20200;-73
2024/03/11 06:34:34;;;;;;;157.67;76.40;;;8.10;99.90;;;;;;4999275;28;20195;-73
2024/03/11 06:37:00;;;;;;;165.37;79.83;;;8.00;99.90;;;;;;4980658;28;20196;-73
2024/03/11 06:39:26;;;;;;;150.57;74.90;;;8.10;99.90;;;;;;4987726;28;20177;-73
2024/03/11 06:41:52;;;;;;;168.03;77.97;;;8.20;99.90;;;;;;4992638;28;20196;-73
2024/03/11 06:44:17;;;;;;;165.73;79.37;;;8.10;99.90;;;;;;4992829;28;20173;-74
2024/03/11 06:46:43;;;;;;;174.53;81.20;;;8.20;99.90;;;;;;4992144;28;20199;-73
2024/03/11 06:49:09;;;;;;;153.87;76.17;;;8.20;99.90;;;;;;4990591;28;20187;-73
2024/03/11 06:51:35;;;;;;;161.30;76.30;;;8.20;99.90;;;;;;4992391;28;20278;-73
2024/03/11 06:54:01;;;;;;;164.13;76.67;;;8.20;99.90;;;;;;4992223;28;20584;-73
2024/03/11 06:56:27;;;;;;;160.03;76.60;;;8.20;99.90;;;;;;4992246;28;20165;-73
2024/03/11 06:58:53;;;;;;;166.70;78.23;;;8.20;99.90;;;;;;4992119;28;20177;-73
2024/03/11 07:01:19;;;;;;;154.70;76.00;;;8.30;99.90;;;;;;4992275;28;20273;-73
2024/03/11 07:03:45;;;;;;;155.97;74.97;;;8.30;99.90;;;;;;4990365;28;20189;-71
2024/03/11 07:06:10;;;;;;;157.27;77.20;;;8.30;99.90;;;;;;4991953;28;20507;-73
2024/03/11 07:08:37;;;;;;;142.67;69.27;;;8.20;99.90;;;;;;4991924;28;20204;-73
2024/03/11 07:11:03;;;;;;;152.90;73.57;;;8.30;99.90;;;;;;4991790;28;20223;-73
2024/03/11 07:13:31;;;;;;;148.13;69.60;;;8.30;99.90;;;;;;4992002;28;20196;-73
2024/03/11 07:15:58;;;;;;;147.43;71.13;;;8.20;99.90;;;;;;4991662;28;20181;-72
2024/03/11 07:18:24;;;;;;;166.60;75.63;;;8.30;99.90;;;;;;4991663;28;20200;-73
2024/03/11 07:20:52;;;;;;;162.60;74.63;;;8.30;99.90;;;;;;4990266;28;20196;-74
2024/03/11 07:23:19;;;;;;;155.13;72.70;;;8.40;99.90;;;;;;4991804;28;20574;-73
2024/03/11 07:25:44;;;;;;;169.73;74.60;;;8.40;99.90;;;;;;4991918;28;20256;-74
2024/03/11 07:28:12;;;;;;;137.63;68.73;;;8.50;99.90;;;;;;4991703;28;20657;-73
2024/03/11 07:30:39;;;;;;;124.20;60.87;;;8.50;99.90;;;;;;4985803;28;20565;-74
2024/03/11 07:33:14;;;;;;;109.20;53.03;;;8.60;99.90;;;;;;4972424;28;20197;-73
2024/03/11 07:35:44;;;;;;;95.10;49.07;;;8.60;99.90;;;;;;4972397;28;20200;-75
2024/03/11 07:38:10;;;;;;;83.23;44.37;;;8.60;99.90;;;;;;4972313;28;20177;-74
2024/03/11 07:40:37;;;;;;;81.30;43.17;;;8.60;99.90;;;;;;4972421;28;20232;-74
2024/03/11 07:43:03;;;;;;;76.00;41.63;;;8.60;99.90;;;;;;4971896;28;20205;-74
2024/03/11 07:45:32;;;;;;;70.93;38.77;;;8.70;99.90;;;;;;4978521;28;20181;-74
2024/03/11 07:47:58;;;;;;;40.93;24.80;;;8.70;99.90;;;;;;4993398;28;20212;-76
2024/03/11 07:50:24;;;;;;;32.97;18.43;;;8.70;99.90;;;;;;4991796;28;20633;-74
2024/03/11 07:52:50;;;;;;;19.67;14.67;;;8.70;99.90;;;;;;4991496;28;20200;-74
2024/03/11 07:55:17;;;;;;;17.10;12.57;;;8.70;99.90;;;;;;4991397;28;20216;-74
2024/03/11 07:57:45;;;;;;;16.30;11.70;;;8.60;99.90;;;;;;4990530;28;20551;-74
2024/03/11 08:00:17;;;;;;;16.63;11.50;;;8.60;99.90;;;;;;4972590;28;20212;-74
2024/03/11 08:02:50;;;;;;;11.60;9.90;;;8.60;99.90;;;;;;4972763;28;20324;-75
2024/03/11 08:05:17;;;;;;;13.67;9.93;;;8.60;99.90;;;;;;4972368;28;20246;-74
2024/03/11 08:07:45;;;;;;;11.60;10.40;;;8.60;99.90;;;;;;4972389;28;20209;-74
2024/03/11 08:10:12;;;;;;;10.20;9.10;;;8.50;99.90;;;;;;4973125;28;20205;-74
2024/03/11 08:12:39;;;;;;;13.60;10.03;;;8.50;99.90;;;;;;4974059;28;20189;-73
2024/03/11 08:15:15;;;;;;;12.93;11.03;;;8.60;99.90;;;;;;4991488;28;20207;-73
2024/03/11 08:17:42;;;;;;;12.80;10.13;;;8.50;99.90;;;;;;4991253;28;20187;-74
2024/03/11 08:20:09;;;;;;;11.40;9.30;;;8.60;99.90;;;;;;4989770;28;20351;-74
2024/03/11 08:22:43;;;;;;;11.23;9.13;;;8.50;99.90;;;;;;4991336;28;20220;-74
2024/03/11 08:25:11;;;;;;;14.40;10.37;;;8.40;99.90;;;;;;4991062;28;20530;-75
2024/03/11 08:27:40;;;;;;;11.50;10.00;;;8.40;99.90;;;;;;4972964;28;20228;-73
2024/03/11 08:30:09;;;;;;;13.40;10.40;;;8.40;99.90;;;;;;4972327;28;20185;-73
2024/03/11 08:32:35;;;;;;;12.53;10.17;;;8.40;99.90;;;;;;4974613;28;20186;-74
2024/03/11 08:35:01;;;;;;;12.43;10.40;;;8.40;99.90;;;;;;4974989;28;20177;-73
2024/03/11 08:37:27;;;;;;;13.30;9.50;;;8.30;99.90;;;;;;4975340;28;20180;-73
2024/03/11 08:39:53;;;;;;;12.17;9.73;;;8.30;99.90;;;;;;4975407;28;20261;-74
2024/03/11 08:42:19;;;;;;;11.63;9.10;;;8.40;99.90;;;;;;4990763;28;20295;-73
2024/03/11 08:44:45;;;;;;;10.87;8.87;;;8.30;99.90;;;;;;4994647;28;20177;-74
2024/03/11 08:47:13;;;;;;;11.93;8.63;;;8.30;99.90;;;;;;4992596;28;20632;-73
2024/03/11 08:49:40;;;;;;;13.97;9.43;;;8.30;99.90;;;;;;4994467;28;20177;-73
2024/03/11 08:52:12;;;;;;;10.77;8.93;;;8.20;99.90;;;;;;4994500;28;20266;-73
2024/03/11 08:54:42;;;;;;;12.90;9.47;;;8.20;99.90;;;;;;4992836;28;20579;-73
2024/03/11 08:57:12;;;;;;;10.53;8.60;;;8.10;99.90;;;;;;4993992;28;20504;-74
2024/03/11 08:59:38;;;;;;;10.87;8.93;;;8.20;99.90;;;;;;4994068;28;20649;-74
2024/03/11 09:02:05;;;;;;;11.27;9.13;;;8.20;99.90;;;;;;4994124;28;20193;-73
2024/03/11 09:04:30;;;;;;;11.37;9.03;;;8.20;99.90;;;;;;4994322;28;20169;-73
2024/03/11 09:06:57;;;;;;;10.40;9.33;;;8.20;99.90;;;;;;4993805;28;20200;-74
2024/03/11 09:09:26;;;;;;;10.83;9.73;;;8.10;99.90;;;;;;4993591;28;20169;-74
2024/03/11 09:11:56;;;;;;;14.17;9.90;;;8.20;99.90;;;;;;4993099;28;20276;-73
2024/03/11 09:14:26;;;;;;;11.60;8.53;;;8.10;99.90;;;;;;4994061;28;20165;-73
2024/03/11 09:16:58;;;;;;;12.03;9.53;;;8.10;99.90;;;;;;4993621;28;20357;-74
2024/03/11 09:19:25;;;;;;;12.50;9.17;;;8.20;99.90;;;;;;4993913;28;20165;-74
2024/03/11 09:21:52;;;;;;;12.70;8.47;;;8.10;99.90;;;;;;4985679;28;20197;-73
2024/03/11 09:24:18;;;;;;;14.13;9.30;;;8.20;99.90;;;;;;4974609;28;20197;-73
2024/03/11 09:26:53;;;;;;;12.53;9.07;;;8.20;99.90;;;;;;4974552;28;20220;-73
2024/03/11 09:29:19;;;;;;;12.27;9.23;;;8.20;99.90;;;;;;4974444;28;20196;-73
2024/03/11 09:31:46;;;;;;;11.00;9.13;;;8.20;99.90;;;;;;4988319;28;20200;-73
2024/03/11 09:34:12;;;;;;;13.13;9.20;;;8.20;99.90;;;;;;4986709;28;20174;-73
2024/03/11 09:36:39;;;;;;;13.03;9.23;;;8.20;99.90;;;;;;4998040;28;20172;-73
2024/03/11 09:39:06;;;;;;;12.00;9.33;;;8.20;99.90;;;;;;5004416;28;20476;-73
2024/03/11 09:41:41;;;;;;;10.70;8.63;;;8.20;99.90;;;;;;4993383;28;20192;-73
2024/03/11 09:44:18;;;;;;;9.73;8.50;;;8.30;99.90;;;;;;4985942;28;20553;-73
2024/03/11 09:46:55;;;;;;;14.20;8.33;;;8.20;99.90;;;;;;5006813;28;20187;-73
2024/03/11 09:49:23;;;;;;;8.63;7.73;;;8.20;99.90;;;;;;4995249;28;20668;-73
2024/03/11 09:51:49;;;;;;;9.87;8.33;;;8.20;99.90;;;;;;5013089;28;20214;-73
2024/03/11 09:54:19;;;;;;;9.60;7.93;;;8.30;99.90;;;;;;5013377;28;20268;-74
2024/03/11 09:56:47;;;;;;;10.43;7.87;;;8.30;99.90;;;;;;5013247;28;20161;-74
2024/03/11 09:59:24;;;;;;;9.33;8.37;;;8.30;99.90;;;;;;5013128;28;20180;-73
2024/03/11 10:01:54;;;;;;;10.07;7.87;;;8.40;99.90;;;;;;5013219;28;20192;-74
2024/03/11 10:04:23;;;;;;;9.23;7.77;;;8.40;99.90;;;;;;4977858;28;20181;-73
2024/03/11 10:06:59;;;;;;;11.13;8.33;;;8.40;99.90;;;;;;4973703;28;20262;-73
2024/03/11 10:09:25;;;;;;;10.53;8.13;;;8.40;99.90;;;;;;4973907;28;20181;-73
2024/03/11 10:12:08;;;;;;;9.37;8.30;;;8.30;99.90;;;;;;4973966;28;20194;-74
2024/03/11 10:14:35;;;;;;;12.73;8.10;;;8.30;99.90;;;;;;4977575;28;20195;-74
2024/03/11 10:17:28;;;;;;;9.50;8.00;;;8.20;99.90;;;;;;4983093;28;20185;-74
2024/03/11 10:19:56;;;;;;;12.20;8.57;;;8.30;99.90;;;;;;4956435;28;20185;-73
2024/03/11 10:22:29;;;;;;;12.17;8.83;;;8.20;99.90;;;;;;4973748;28;20192;-72
2024/03/11 10:24:57;;;;;;;11.37;7.90;;;8.30;99.90;;;;;;4973469;28;20196;-73
2024/03/11 10:27:28;;;;;;;9.83;8.30;;;8.30;99.90;;;;;;4973282;28;20703;-72
2024/03/11 10:29:54;;;;;;;9.50;8.00;;;8.30;99.90;;;;;;4973620;28;20201;-73
2024/03/11 10:32:42;;;;;;;8.80;7.90;;;8.30;99.90;;;;;;5041236;23;20231;-84
2024/03/11 10:35:11;;;;;;;8.80;7.97;;;8.20;99.90;;;;;;5010815;28;20182;-84
2024/03/11 10:37:39;;;;;;;9.07;7.97;;;8.20;99.90;;;;;;5028385;28;20180;-83
2024/03/11 10:40:10;;;;;;;8.60;7.47;;;8.30;99.90;;;;;;5032069;28;20184;-82
2024/03/11 10:42:37;;;;;;;8.90;7.90;;;8.30;99.90;;;;;;5021082;28;20204;-81
2024/03/11 10:45:07;;;;;;;8.40;7.47;;;8.30;99.90;;;;;;5026307;28;20231;-84
2024/03/11 10:47:33;;;;;;;7.97;7.23;;;8.30;99.90;;;;;;5022487;28;20207;-84
2024/03/11 10:50:03;;;;;;;8.03;7.33;;;8.30;99.90;;;;;;5024723;28;20211;-83
2024/03/11 10:52:33;;;;;;;10.13;7.33;;;8.40;99.90;;;;;;5023903;28;20205;-84
2024/03/11 10:54:59;;;;;;;8.13;7.33;;;8.30;99.90;;;;;;5003262;28;20172;-85
2024/03/11 10:57:35;;;;;;;7.70;6.60;;;8.30;99.90;;;;;;5004724;28;20176;-86
2024/03/11 11:02:45;;;;;;;6.70;6.10;;;8.30;99.90;;;;;;5025744;28;20191;-84
2024/03/11 11:05:18;;;;;;;8.83;7.13;;;8.30;99.90;;;;;;5026595;28;20259;-84
2024/03/11 11:07:46;;;;;;;7.57;6.93;;;8.30;99.90;;;;;;5006255;28;20258;-84
2024/03/11 11:10:17;;;;;;;7.53;6.83;;;8.30;99.90;;;;;;5023637;28;20654;-83
2024/03/11 11:12:44;;;;;;;7.17;6.47;;;8.20;99.90;;;;;;5019703;28;20230;-85
2024/03/11 11:15:12;;;;;;;6.93;6.30;;;8.30;99.90;;;;;;5017479;28;20188;-85
2024/03/11 11:17:41;;;;;;;7.10;6.50;;;8.30;99.90;;;;;;4998019;28;20195;-85
2024/03/11 11:20:29;;;;;;;7.53;6.73;;;8.30;99.90;;;;;;5017719;28;20273;-85
2024/03/11 11:23:02;;;;;;;7.10;6.43;;;8.40;99.90;;;;;;5017706;28;20207;-84
2024/03/11 11:25:41;;;;;;;7.80;6.90;;;8.40;99.90;;;;;;5018018;28;20183;-85
2024/03/11 11:28:31;;;;;;;6.63;6.03;;;8.40;99.90;;;;;;4999107;28;20617;-85
2024/03/11 11:31:26;;;;;;;7.27;6.67;;;8.50;99.90;;;;;;5001657;28;20223;-85
2024/03/11 11:34:07;;;;;;;8.93;7.10;;;8.50;99.90;;;;;;5001931;28;20204;-85
2024/03/11 11:36:32;;;;;;;8.70;7.27;;;8.60;99.90;;;;;;4998355;28;20202;-85
2024/03/11 11:39:17;;;;;;;6.87;6.27;;;8.60;99.90;;;;;;5001397;28;20183;-85
2024/03/11 11:41:49;;;;;;;7.17;6.57;;;8.60;99.90;;;;;;5003915;28;20214;-85
2024/03/11 11:44:36;;;;;;;7.27;6.43;;;8.70;99.90;;;;;;4984155;28;20208;-85
2024/03/11 11:47:14;;;;;;;6.47;5.83;;;8.60;99.90;;;;;;4999631;28;20180;-85
2024/03/11 11:49:43;;;;;;;6.40;5.80;;;8.60;99.90;;;;;;4998030;28;20649;-86
2024/03/11 11:52:10;;;;;;;8.20;5.70;;;8.60;99.90;;;;;;4998077;28;20180;-85
2024/03/11 11:54:36;;;;;;;6.87;6.37;;;8.60;99.90;;;;;;4998572;28;20223;-85
2024/03/11 11:57:05;;;;;;;6.03;5.63;;;8.60;99.90;;;;;;4999335;28;20177;-84
2024/03/11 11:59:33;;;;;;;5.77;5.27;;;8.60;99.90;;;;;;4999106;28;20594;-84
2024/03/11 12:02:00;;;;;;;5.50;5.10;;;8.60;99.90;;;;;;5018356;28;20260;-84
2024/03/11 12:04:28;;;;;;;5.60;5.20;;;8.60;99.90;;;;;;5002240;28;20196;-85
2024/03/11 12:06:53;;;;;;;5.80;5.37;;;8.50;99.90;;;;;;5032252;28;20172;-85
2024/03/11 12:09:27;;;;;;;5.37;5.07;;;8.50;99.90;;;;;;5019137;28;20187;-90
2024/03/11 12:11:57;;;;;;;6.30;5.10;;;8.60;99.90;;;;;;5018580;28;20243;-84
2024/03/11 12:14:22;;;;;;;5.67;5.23;;;8.50;99.90;;;;;;5019682;28;20268;-84
2024/03/11 12:16:50;;;;;;;5.83;5.33;;;8.60;99.90;;;;;;5020554;28;20191;-84
2024/03/11 12:19:16;;;;;;;5.20;4.90;;;8.60;99.90;;;;;;5037391;28;20160;-84
2024/03/11 12:21:44;;;;;;;5.50;5.10;;;8.70;99.90;;;;;;5021675;28;20161;-84
2024/03/11 12:24:14;;;;;;;5.13;4.83;;;8.70;99.90;;;;;;5012974;28;20865;-84
2024/03/11 12:26:45;;;;;;;6.00;5.50;;;8.70;99.90;;;;;;5000681;28;20199;-85
2024/03/11 12:29:19;;;;;;;5.63;5.23;;;8.70;99.90;;;;;;5001087;28;20216;-85
2024/03/11 12:31:52;;;;;;;5.20;4.80;;;8.80;99.90;;;;;;5018436;28;20176;-85
2024/03/11 12:34:23;;;;;;;5.60;5.07;;;8.80;99.90;;;;;;5016960;28;20265;-85
2024/03/11 12:36:50;;;;;;;5.80;5.40;;;8.90;99.90;;;;;;4999794;28;20180;-85
2024/03/11 12:39:33;;;;;;;5.17;4.77;;;8.90;99.90;;;;;;5001254;28;20638;-84
2024/03/11 12:42:00;;;;;;;5.17;4.80;;;8.90;99.90;;;;;;5001664;28;20187;-84
2024/03/11 12:44:26;;;;;;;5.60;5.20;;;9.00;99.90;;;;;;5000055;28;20224;-85
2024/03/11 12:46:53;;;;;;;5.43;5.00;;;9.00;99.90;;;;;;5015446;28;20200;-85
2024/03/11 12:49:23;;;;;;;6.67;6.00;;;9.00;99.90;;;;;;4983736;28;20223;-85